Terminal Aerodrome Forecast
Issued by NWS Huntsville, AL

Home | Current Version | Previous Version | Text Only | Print | Product List | Glossary On
Versions: 1 2 3 4 5 6 7 8 9 10 11 12 13 14 15
000
FTUS44 KHUN 221132
TAFHSV
TAF
KHSV 221132Z 2212/2312 13004KT P6SM BKN015
     FM221500 15007KT P6SM VCSH BKN025
     FM222000 06005KT P6SM VCTS BKN035CB
     FM230200 VRB03KT P6SM BKN120
      TEMPO 2308/2312 4SM BR SCT120=

USA.gov is the U.S. government's official web portal to all federal, state and local government web resources and services.